createdAt,value
2023-01-29T00:01:15.881Z,-3.70
2023-01-29T00:03:43.660Z,-3.66
2023-01-29T00:06:12.854Z,-3.58
2023-01-29T00:08:40.667Z,-3.53
2023-01-29T00:11:09.979Z,-3.31
2023-01-29T00:13:37.732Z,-3.41
2023-01-29T00:16:06.294Z,-3.41
2023-01-29T00:18:34.070Z,-3.18
2023-01-29T00:21:01.874Z,-3.23
2023-01-29T00:23:30.980Z,-3.12
2023-01-29T00:26:00.952Z,-2.98
2023-01-29T00:28:28.675Z,-3.11
2023-01-29T00:30:57.196Z,-3.25
2023-01-29T00:33:25.032Z,-3.34
2023-01-29T00:35:53.294Z,-3.42
2023-01-29T00:38:21.022Z,-3.41
2023-01-29T00:41:07.808Z,-3.51
2023-01-29T00:43:53.042Z,-3.18
2023-01-29T00:46:20.950Z,-3.21
2023-01-29T00:48:48.718Z,-3.41
2023-01-29T00:51:16.483Z,-3.62
2023-01-29T00:53:44.245Z,-3.66
2023-01-29T00:56:13.353Z,-3.74
2023-01-29T00:58:41.123Z,-3.79
2023-01-29T01:01:09.017Z,-3.79
2023-01-29T01:03:42.034Z,-3.82
2023-01-29T01:06:11.757Z,-3.82
2023-01-29T01:08:57.218Z,-3.77
2023-01-29T01:11:28.760Z,-3.70
2023-01-29T01:14:02.018Z,-3.52
2023-01-29T01:16:29.831Z,-3.63
2023-01-29T01:18:57.557Z,-3.70
2023-01-29T01:21:25.397Z,-3.94
2023-01-29T01:23:53.560Z,-4.18
2023-01-29T01:26:21.340Z,-4.38
2023-01-29T01:28:50.466Z,-4.51
2023-01-29T01:31:18.744Z,-4.64
2023-01-29T01:33:46.530Z,-4.66
2023-01-29T01:36:15.755Z,-4.58
2023-01-29T01:38:45.354Z,-4.51
2023-01-29T01:41:14.888Z,-4.54
2023-01-29T01:43:55.561Z,-4.55
2023-01-29T01:46:23.647Z,-4.62
2023-01-29T01:48:57.067Z,-4.61
2023-01-29T01:51:27.272Z,-4.44
2023-01-29T01:53:59.141Z,-4.41
2023-01-29T01:56:40.647Z,-4.25
2023-01-29T01:59:12.980Z,-4.28
2023-01-29T02:01:42.771Z,-4.42
2023-01-29T02:04:31.949Z,-4.41
2023-01-29T02:07:21.271Z,-4.29
2023-01-29T02:09:53.883Z,-4.45
2023-01-29T02:12:23.128Z,-4.59
2023-01-29T02:14:53.100Z,-4.71
2023-01-29T02:17:21.502Z,-4.69
2023-01-29T02:19:58.408Z,-4.52
2023-01-29T02:22:42.049Z,-4.28
2023-01-29T02:25:32.892Z,-4.21
2023-01-29T02:28:13.273Z,-3.98
2023-01-29T02:30:45.957Z,-4.05
2023-01-29T02:33:22.939Z,-4.07
2023-01-29T02:35:59.652Z,-3.98
2023-01-29T02:38:34.920Z,-3.87
2023-01-29T02:41:09.695Z,-3.84
2023-01-29T02:43:47.278Z,-3.93
2023-01-29T02:46:24.134Z,-4.17
2023-01-29T02:48:59.380Z,-4.38
2023-01-29T02:51:35.303Z,-4.55
2023-01-29T02:54:08.604Z,-4.48
2023-01-29T02:56:40.327Z,-4.29
2023-01-29T02:59:14.362Z,-4.19
2023-01-29T03:01:48.680Z,-4.28
2023-01-29T03:04:21.344Z,-4.29
2023-01-29T03:06:54.518Z,-4.29
2023-01-29T03:09:30.059Z,-4.22
2023-01-29T03:12:20.030Z,-4.22
2023-01-29T03:15:09.543Z,-4.24
2023-01-29T03:17:42.193Z,-4.13
2023-01-29T03:20:17.643Z,-4.04
2023-01-29T03:22:51.487Z,-3.95
2023-01-29T03:25:39.570Z,-3.89
2023-01-29T03:28:27.048Z,-3.79
2023-01-29T03:31:20.149Z,-3.74
2023-01-29T03:34:00.700Z,-3.69
2023-01-29T03:36:37.968Z,-3.77
2023-01-29T03:39:07.149Z,-3.87
2023-01-29T03:41:39.587Z,-4.01
2023-01-29T03:44:15.787Z,-3.98
2023-01-29T03:46:51.502Z,-3.83
2023-01-29T03:49:28.263Z,-3.76
2023-01-29T03:52:02.531Z,-3.83
2023-01-29T03:54:35.104Z,-4.10
2023-01-29T03:57:15.014Z,-4.21
2023-01-29T03:59:52.475Z,-4.13
2023-01-29T04:03:03.274Z,-4.22
2023-01-29T04:05:40.924Z,-4.13
2023-01-29T04:08:23.777Z,-4.13
2023-01-29T04:10:53.971Z,-3.93
2023-01-29T04:13:24.300Z,-3.84
2023-01-29T04:15:57.643Z,-3.74
2023-01-29T04:18:47.456Z,-3.79
2023-01-29T04:21:16.395Z,-3.93
2023-01-29T04:23:44.726Z,-3.91
2023-01-29T04:26:30.527Z,-3.90
2023-01-29T04:29:21.558Z,-4.14
2023-01-29T04:31:58.420Z,-4.13
2023-01-29T04:34:30.549Z,-4.01
2023-01-29T04:37:09.112Z,-4.01
2023-01-29T04:39:47.474Z,-4.04
2023-01-29T04:42:26.913Z,-3.87
2023-01-29T04:45:00.460Z,-3.73
2023-01-29T04:47:35.327Z,-3.63
2023-01-29T04:50:17.659Z,-3.52
2023-01-29T04:52:52.233Z,-3.48
2023-01-29T04:55:27.365Z,-3.46
2023-01-29T04:58:06.438Z,-3.46
2023-01-29T05:00:37.102Z,-3.48
2023-01-29T05:03:06.202Z,-3.49
2023-01-29T05:05:35.499Z,-3.49
2023-01-29T05:08:05.761Z,-3.51
2023-01-29T05:10:35.266Z,-3.53
2023-01-29T05:13:07.490Z,-3.51
2023-01-29T05:15:39.348Z,-3.62
2023-01-29T05:18:08.904Z,-3.58
2023-01-29T05:20:40.886Z,-3.60
2023-01-29T05:23:11.783Z,-3.52
2023-01-29T05:25:39.553Z,-3.51
2023-01-29T05:28:06.934Z,-3.45
2023-01-29T05:30:36.671Z,-3.52
2023-01-29T05:33:05.364Z,-3.48
2023-01-29T05:35:33.955Z,-3.55
2023-01-29T05:38:03.128Z,-3.51
2023-01-29T05:40:31.004Z,-3.48
2023-01-29T05:42:58.727Z,-3.43
2023-01-29T05:45:26.533Z,-3.45
2023-01-29T05:47:57.298Z,-3.42
2023-01-29T05:50:26.190Z,-3.42
2023-01-29T05:52:57.616Z,-3.42
2023-01-29T05:55:27.747Z,-3.42
2023-01-29T05:57:55.520Z,-3.39
2023-01-29T06:00:23.601Z,-3.38
2023-01-29T06:02:51.422Z,-2.33
2023-01-29T06:05:19.255Z,-1.58
2023-01-29T06:07:47.288Z,-0.91
2023-01-29T06:10:17.272Z,-0.85
2023-01-29T06:12:46.916Z,-0.84
2023-01-29T06:15:16.334Z,-0.54
2023-01-29T06:17:44.093Z,-0.47
2023-01-29T06:20:12.916Z,-0.61
2023-01-29T06:22:40.666Z,-0.45
2023-01-29T06:25:09.590Z,-0.04
2023-01-29T06:27:37.407Z,0.54
2023-01-29T06:30:07.692Z,0.78
2023-01-29T06:32:35.554Z,1.03
2023-01-29T06:35:03.495Z,0.59
2023-01-29T06:37:31.273Z,-0.18
2023-01-29T06:39:59.035Z,-0.88
2023-01-29T06:42:28.015Z,-1.21
2023-01-29T06:44:55.962Z,-1.43
2023-01-29T06:47:25.429Z,-1.74
2023-01-29T06:49:53.156Z,-2.01
2023-01-29T06:52:20.894Z,-2.06
2023-01-29T06:54:48.673Z,-2.09
2023-01-29T06:57:16.461Z,-2.08
2023-01-29T06:59:44.203Z,-2.05
2023-01-29T07:02:12.051Z,-2.15
2023-01-29T07:04:41.622Z,-2.15
2023-01-29T07:07:13.114Z,-2.23
2023-01-29T07:09:41.747Z,-2.26
2023-01-29T07:12:09.625Z,-2.32
2023-01-29T07:14:37.722Z,-2.29
2023-01-29T07:17:05.489Z,-2.26
2023-01-29T07:19:33.201Z,-2.28
2023-01-29T07:22:02.457Z,-2.23
2023-01-29T07:24:30.140Z,-2.18
2023-01-29T07:26:58.310Z,-2.18
2023-01-29T07:29:26.035Z,-2.16
2023-01-29T07:31:53.923Z,-2.08
2023-01-29T07:34:21.897Z,-2.06
2023-01-29T07:36:49.655Z,-1.98
2023-01-29T07:39:18.797Z,-1.95
2023-01-29T07:41:46.554Z,-1.89
2023-01-29T07:44:17.546Z,-1.81
2023-01-29T07:46:45.510Z,-1.78
2023-01-29T07:49:13.417Z,-1.70
2023-01-29T07:51:41.445Z,-1.68
2023-01-29T07:54:09.421Z,-1.67
2023-01-29T07:56:38.564Z,-1.70
2023-01-29T07:59:06.354Z,-1.64
2023-01-29T08:01:34.147Z,-1.64
2023-01-29T08:04:01.857Z,-1.60
2023-01-29T08:06:29.604Z,-1.57
2023-01-29T08:08:57.484Z,-1.48
2023-01-29T08:11:25.260Z,-1.44
2023-01-29T08:13:54.429Z,-1.48
2023-01-29T08:16:22.291Z,-1.42
2023-01-29T08:18:50.371Z,-1.40
2023-01-29T08:21:18.292Z,-1.37
2023-01-29T08:23:46.062Z,-1.36
2023-01-29T08:26:13.813Z,-1.33
2023-01-29T08:28:41.534Z,-1.30
2023-01-29T08:31:16.196Z,-1.26
2023-01-29T08:33:44.269Z,-1.26
2023-01-29T08:36:12.036Z,-1.20
2023-01-29T08:38:39.856Z,-1.20
2023-01-29T08:41:07.880Z,-1.19
2023-01-29T08:43:36.885Z,-1.12
2023-01-29T08:46:05.438Z,-1.06
2023-01-29T08:48:34.949Z,-1.09
2023-01-29T08:51:04.408Z,-1.05
2023-01-29T08:53:32.809Z,-1.00
2023-01-29T08:56:00.553Z,-0.99
2023-01-29T08:58:28.370Z,-0.91
2023-01-29T09:00:56.207Z,-0.86
2023-01-29T09:03:24.000Z,-0.76
2023-01-29T09:05:53.088Z,-0.81
2023-01-29T09:08:20.823Z,-0.72
2023-01-29T09:10:48.533Z,-0.64
2023-01-29T09:13:16.306Z,-0.55
2023-01-29T09:15:44.146Z,-0.45
2023-01-29T09:18:12.055Z,-0.34
2023-01-29T09:20:39.817Z,-0.34
2023-01-29T09:23:10.561Z,-0.40
2023-01-29T09:25:38.593Z,-0.30
2023-01-29T09:28:07.547Z,-0.28
2023-01-29T09:30:37.672Z,-0.27
2023-01-29T09:33:05.972Z,-0.25
2023-01-29T09:35:34.826Z,-0.20
2023-01-29T09:38:02.622Z,-0.17
2023-01-29T09:40:39.461Z,-0.11
2023-01-29T09:43:13.250Z,-0.03
2023-01-29T09:45:46.739Z,-0.03
2023-01-29T09:48:14.871Z,0.04
2023-01-29T09:50:45.951Z,0.14
2023-01-29T09:53:19.912Z,0.31
2023-01-29T09:55:52.336Z,0.52
2023-01-29T09:58:23.947Z,0.64
2023-01-29T10:01:00.986Z,0.78
2023-01-29T10:03:42.924Z,0.89
2023-01-29T10:06:24.579Z,0.99
2023-01-29T10:09:16.061Z,1.07
2023-01-29T10:11:57.700Z,1.36
2023-01-29T10:14:37.795Z,1.43
2023-01-29T10:17:17.342Z,1.46
2023-01-29T10:19:58.592Z,1.52
2023-01-29T10:23:01.053Z,1.51
2023-01-29T10:25:29.114Z,1.64
2023-01-29T10:28:00.724Z,1.75
2023-01-29T10:30:33.182Z,1.71
2023-01-29T10:33:03.758Z,1.51
2023-01-29T10:35:35.816Z,1.48
2023-01-29T10:38:20.179Z,1.55
2023-01-29T10:40:57.043Z,1.62
2023-01-29T10:43:33.991Z,1.65
2023-01-29T10:46:13.670Z,1.77
2023-01-29T10:49:01.350Z,1.85
2023-01-29T10:51:43.997Z,1.68
2023-01-29T10:54:27.232Z,1.62
2023-01-29T10:57:07.909Z,1.43
2023-01-29T10:59:56.889Z,1.34
2023-01-29T11:02:24.731Z,1.41
2023-01-29T11:04:53.156Z,1.29
2023-01-29T11:07:23.445Z,1.39
2023-01-29T11:09:57.377Z,1.50
2023-01-29T11:12:30.681Z,1.54
2023-01-29T11:15:06.327Z,1.64
2023-01-29T11:17:34.166Z,1.68
2023-01-29T11:20:02.045Z,1.74
2023-01-29T11:22:31.284Z,1.64
2023-01-29T11:25:10.939Z,1.79
2023-01-29T11:27:44.425Z,1.71
2023-01-29T11:30:22.671Z,1.57
2023-01-29T11:32:53.814Z,1.64
2023-01-29T11:35:24.093Z,1.52
2023-01-29T11:37:52.211Z,1.50
2023-01-29T11:40:36.116Z,1.44
2023-01-29T11:43:22.244Z,1.39
2023-01-29T11:45:54.012Z,1.40
2023-01-29T11:48:23.396Z,1.43
2023-01-29T11:50:55.290Z,1.48
2023-01-29T11:53:28.793Z,1.50
2023-01-29T11:55:56.916Z,1.43
2023-01-29T11:58:30.199Z,1.36
2023-01-29T12:01:01.114Z,1.36
2023-01-29T12:03:36.246Z,1.31
2023-01-29T12:06:07.345Z,1.39
2023-01-29T12:08:38.610Z,1.43
2023-01-29T12:11:13.149Z,1.51
2023-01-29T12:13:43.277Z,1.52
2023-01-29T12:16:22.793Z,1.54
2023-01-29T12:18:56.089Z,1.54
2023-01-29T12:21:31.419Z,1.62
2023-01-29T12:24:03.183Z,1.65
2023-01-29T12:26:34.773Z,1.74
2023-01-29T12:29:21.496Z,1.83
2023-01-29T12:31:56.223Z,1.92
2023-01-29T12:34:34.320Z,2.01
2023-01-29T12:37:07.801Z,1.97
2023-01-29T12:39:37.357Z,2.09
2023-01-29T12:42:11.350Z,2.13
2023-01-29T12:44:43.688Z,2.21
2023-01-29T12:47:20.334Z,2.23
2023-01-29T12:49:53.148Z,2.25
2023-01-29T12:52:26.030Z,2.26
2023-01-29T12:54:57.246Z,2.26
2023-01-29T12:57:33.466Z,2.32
2023-01-29T13:00:08.996Z,2.37
2023-01-29T13:02:45.244Z,2.49
2023-01-29T13:05:21.750Z,2.44
2023-01-29T13:07:55.561Z,2.47
2023-01-29T13:10:30.711Z,2.34
2023-01-29T13:13:03.851Z,2.28
2023-01-29T13:15:36.322Z,2.30
2023-01-29T13:18:25.098Z,2.43
2023-01-29T13:20:53.595Z,2.47
2023-01-29T13:23:23.235Z,2.53
2023-01-29T13:25:52.807Z,2.49
2023-01-29T13:28:22.942Z,2.52
2023-01-29T13:31:13.548Z,2.46
2023-01-29T13:33:44.964Z,2.44
2023-01-29T13:36:19.352Z,2.33
2023-01-29T13:38:47.338Z,2.44
2023-01-29T13:41:15.978Z,2.53
2023-01-29T13:43:50.626Z,2.49
2023-01-29T13:46:21.451Z,2.44
2023-01-29T13:48:54.509Z,2.50
2023-01-29T13:51:26.713Z,2.54
2023-01-29T13:53:58.195Z,2.65
2023-01-29T13:56:51.616Z,2.63
2023-01-29T13:59:24.813Z,2.57
2023-01-29T14:02:04.482Z,2.58
2023-01-29T14:04:34.144Z,2.56
2023-01-29T14:07:04.063Z,2.49
2023-01-29T14:10:04.615Z,2.52
2023-01-29T14:12:55.461Z,2.57
2023-01-29T14:15:31.490Z,2.57
2023-01-29T14:18:06.076Z,2.54
2023-01-29T14:20:47.056Z,2.50
2023-01-29T14:23:35.902Z,2.42
2023-01-29T14:26:06.159Z,2.42
2023-01-29T14:28:35.813Z,2.43
2023-01-29T14:31:04.993Z,2.43
2023-01-29T14:33:36.998Z,2.44
2023-01-29T14:36:10.322Z,2.37
2023-01-29T14:38:39.776Z,2.42
2023-01-29T14:41:18.187Z,2.33
2023-01-29T14:43:46.086Z,2.33
2023-01-29T14:46:43.296Z,2.26
2023-01-29T14:49:11.511Z,2.26
2023-01-29T14:51:44.438Z,2.21
2023-01-29T14:54:26.318Z,2.11
2023-01-29T14:56:59.640Z,2.05
2023-01-29T14:59:33.080Z,1.98
2023-01-29T15:02:04.179Z,1.85
2023-01-29T15:04:45.526Z,1.83
2023-01-29T15:07:26.599Z,1.79
2023-01-29T15:10:13.522Z,1.72
2023-01-29T15:12:50.765Z,1.68
2023-01-29T15:15:23.458Z,1.70
2023-01-29T15:17:58.366Z,1.71
2023-01-29T15:20:28.834Z,1.71
2023-01-29T15:22:58.445Z,1.68
2023-01-29T15:25:27.500Z,1.67
2023-01-29T15:27:57.783Z,1.64
2023-01-29T15:30:33.482Z,1.64
2023-01-29T15:33:02.829Z,1.62
2023-01-29T15:35:31.362Z,1.71
2023-01-29T15:38:02.615Z,1.64
2023-01-29T15:40:30.668Z,1.61
2023-01-29T15:42:58.865Z,1.58
2023-01-29T15:45:30.991Z,1.60
2023-01-29T15:48:05.993Z,1.51
2023-01-29T15:50:36.791Z,1.48
2023-01-29T15:53:10.370Z,1.47
2023-01-29T15:55:38.226Z,1.51
2023-01-29T15:58:07.706Z,1.50
2023-01-29T16:00:35.643Z,1.50
2023-01-29T16:03:15.060Z,1.50
2023-01-29T16:05:43.220Z,1.46
2023-01-29T16:08:16.035Z,1.46
2023-01-29T16:10:45.115Z,1.40
2023-01-29T16:13:21.097Z,1.40
2023-01-29T16:15:57.915Z,1.43
2023-01-29T16:18:29.853Z,1.47
2023-01-29T16:20:59.362Z,1.47
2023-01-29T16:23:33.258Z,1.44
2023-01-29T16:26:04.418Z,1.44
2023-01-29T16:28:32.491Z,1.44
2023-01-29T16:31:04.154Z,1.44
2023-01-29T16:33:36.255Z,1.48
2023-01-29T16:36:06.146Z,1.50
2023-01-29T16:38:37.065Z,1.47
2023-01-29T16:41:15.257Z,1.43
2023-01-29T16:43:55.637Z,1.44
2023-01-29T16:46:32.789Z,1.46
2023-01-29T16:49:01.272Z,1.50
2023-01-29T16:51:30.753Z,1.46
2023-01-29T16:54:02.377Z,1.48
2023-01-29T16:56:33.183Z,1.47
2023-01-29T16:59:03.648Z,1.47
2023-01-29T17:01:32.019Z,1.47
2023-01-29T17:04:08.861Z,1.51
2023-01-29T17:06:37.322Z,1.48
2023-01-29T17:09:08.096Z,1.48
2023-01-29T17:11:38.669Z,1.54
2023-01-29T17:14:08.256Z,1.50
2023-01-29T17:16:38.456Z,1.51
2023-01-29T17:19:17.808Z,1.54
2023-01-29T17:21:45.501Z,1.50
2023-01-29T17:24:14.621Z,1.47
2023-01-29T17:26:42.796Z,1.50
2023-01-29T17:29:15.490Z,1.48
2023-01-29T17:31:43.497Z,1.48
2023-01-29T17:34:12.663Z,1.51
2023-01-29T17:36:40.450Z,1.51
2023-01-29T17:39:18.204Z,1.50
2023-01-29T17:41:48.233Z,1.50
2023-01-29T17:44:16.290Z,1.50
2023-01-29T17:46:44.453Z,1.58
2023-01-29T17:49:23.431Z,1.58
2023-01-29T17:51:51.501Z,1.55
2023-01-29T17:54:20.696Z,1.62
2023-01-29T17:56:48.739Z,1.64
2023-01-29T17:59:18.481Z,1.61
2023-01-29T18:01:47.545Z,1.64
2023-01-29T18:04:15.789Z,1.64
2023-01-29T18:06:45.369Z,1.65
2023-01-29T18:09:15.142Z,1.67
2023-01-29T18:11:44.563Z,1.68
2023-01-29T18:14:14.009Z,1.68
2023-01-29T18:16:43.437Z,1.67
2023-01-29T18:19:17.355Z,1.64
2023-01-29T18:21:45.252Z,1.67
2023-01-29T18:24:13.027Z,1.72
2023-01-29T18:26:40.841Z,1.71
2023-01-29T18:29:10.017Z,1.71
2023-01-29T18:31:37.867Z,1.74
2023-01-29T18:34:05.838Z,1.72
2023-01-29T18:36:33.626Z,1.75
2023-01-29T18:39:01.451Z,1.74
2023-01-29T18:41:29.244Z,1.75
2023-01-29T18:43:57.107Z,1.81
2023-01-29T18:46:26.341Z,1.79
2023-01-29T18:48:54.159Z,1.82
2023-01-29T18:51:21.953Z,1.79
2023-01-29T18:53:53.013Z,1.75
2023-01-29T18:56:20.949Z,1.72
2023-01-29T18:58:52.018Z,1.81
2023-01-29T19:01:23.595Z,1.81
2023-01-29T19:03:52.830Z,1.77
2023-01-29T19:06:20.674Z,1.70
2023-01-29T19:08:48.630Z,1.70
2023-01-29T19:11:16.604Z,1.71
2023-01-29T19:13:44.391Z,1.68
2023-01-29T19:16:13.486Z,1.71
2023-01-29T19:18:41.345Z,1.72
2023-01-29T19:21:12.402Z,1.71
2023-01-29T19:23:40.600Z,1.75
2023-01-29T19:26:08.417Z,1.71
2023-01-29T19:28:36.468Z,1.62
2023-01-29T19:31:04.794Z,1.68
2023-01-29T19:33:32.642Z,1.71
2023-01-29T19:36:00.882Z,1.72
2023-01-29T19:38:33.333Z,1.71
2023-01-29T19:41:01.334Z,1.74
2023-01-29T19:43:30.749Z,1.77
2023-01-29T19:45:59.493Z,1.78
2023-01-29T19:48:27.520Z,1.77
2023-01-29T19:50:56.800Z,1.74
2023-01-29T19:53:25.275Z,1.72
2023-01-29T19:56:02.195Z,1.71
2023-01-29T19:58:30.444Z,1.70
2023-01-29T20:00:59.279Z,1.71
2023-01-29T20:03:28.157Z,1.77
2023-01-29T20:05:56.233Z,1.77
2023-01-29T20:08:24.837Z,1.83
2023-01-29T20:10:52.644Z,1.81
2023-01-29T20:13:21.798Z,1.88
2023-01-29T20:15:51.671Z,1.85
2023-01-29T20:18:20.115Z,1.88
2023-01-29T20:20:49.602Z,1.92
2023-01-29T20:23:31.703Z,1.94
2023-01-29T20:26:04.634Z,1.94
2023-01-29T20:28:34.483Z,1.92
2023-01-29T20:31:02.520Z,1.95
2023-01-29T20:33:30.608Z,2.01
2023-01-29T20:36:00.341Z,2.01
2023-01-29T20:38:31.544Z,2.08
2023-01-29T20:41:04.021Z,2.08
2023-01-29T20:43:33.874Z,2.13
2023-01-29T20:46:02.061Z,2.12
2023-01-29T20:48:30.659Z,2.18
2023-01-29T20:51:03.637Z,2.26
2023-01-29T20:53:31.425Z,2.26
2023-01-29T20:55:59.242Z,2.21
2023-01-29T20:58:27.286Z,2.33
2023-01-29T21:00:56.394Z,2.33
2023-01-29T21:03:24.164Z,2.33
2023-01-29T21:05:52.318Z,2.33
2023-01-29T21:08:20.141Z,2.36
2023-01-29T21:10:50.341Z,2.32
2023-01-29T21:13:18.088Z,2.36
2023-01-29T21:15:45.930Z,2.39
2023-01-29T21:18:14.995Z,2.42
2023-01-29T21:20:42.740Z,2.42
2023-01-29T21:23:10.610Z,2.36
2023-01-29T21:25:39.607Z,2.43
2023-01-29T21:28:07.483Z,2.36
2023-01-29T21:30:35.515Z,2.22
2023-01-29T21:33:03.331Z,2.15
2023-01-29T21:35:33.084Z,2.13
2023-01-29T21:38:00.682Z,2.09
2023-01-29T21:40:30.454Z,2.11
2023-01-29T21:43:13.244Z,2.11
2023-01-29T21:45:41.639Z,2.12
2023-01-29T21:48:10.248Z,2.16
2023-01-29T21:50:39.874Z,2.19
2023-01-29T21:53:07.812Z,2.18
2023-01-29T21:55:35.632Z,2.22
2023-01-29T21:58:04.202Z,2.21
2023-01-29T22:00:32.069Z,2.22
2023-01-29T22:03:00.004Z,2.21
2023-01-29T22:05:29.112Z,2.26
2023-01-29T22:07:58.269Z,2.28
2023-01-29T22:10:26.193Z,2.33
2023-01-29T22:12:54.070Z,2.30
2023-01-29T22:15:23.705Z,2.29
2023-01-29T22:17:52.127Z,2.25
2023-01-29T22:20:20.591Z,2.23
2023-01-29T22:22:48.473Z,2.22
2023-01-29T22:25:19.947Z,2.22
2023-01-29T22:27:47.848Z,2.23
2023-01-29T22:30:16.188Z,2.29
2023-01-29T22:32:44.181Z,2.29
2023-01-29T22:35:11.961Z,2.29
2023-01-29T22:37:39.735Z,2.30
2023-01-29T22:40:08.654Z,2.30
2023-01-29T22:42:37.759Z,2.29
2023-01-29T22:45:06.238Z,2.29
2023-01-29T22:47:34.101Z,2.28
2023-01-29T22:50:01.889Z,2.33
2023-01-29T22:52:38.581Z,2.36
2023-01-29T22:55:09.234Z,2.39
2023-01-29T22:57:38.372Z,2.43
2023-01-29T23:00:08.098Z,2.44
2023-01-29T23:02:35.858Z,2.58
2023-01-29T23:05:04.219Z,2.58
2023-01-29T23:07:32.004Z,2.54
2023-01-29T23:09:59.893Z,2.63
2023-01-29T23:12:27.663Z,2.65
2023-01-29T23:14:56.739Z,2.65
2023-01-29T23:17:24.508Z,2.68
2023-01-29T23:19:52.278Z,2.65
2023-01-29T23:22:20.063Z,2.65
2023-01-29T23:24:47.821Z,2.70
2023-01-29T23:27:14.673Z,2.70
2023-01-29T23:29:43.097Z,2.73
2023-01-29T23:32:13.518Z,2.76
2023-01-29T23:34:41.330Z,2.80
2023-01-29T23:37:09.147Z,2.77
2023-01-29T23:39:36.861Z,2.76
2023-01-29T23:42:05.235Z,2.76
2023-01-29T23:44:32.987Z,2.76
2023-01-29T23:47:00.794Z,2.70
2023-01-29T23:49:29.948Z,2.70
2023-01-29T23:51:58.207Z,2.74
2023-01-29T23:54:26.226Z,2.73
2023-01-29T23:56:54.037Z,2.77
2023-01-29T23:59:22.014Z,2.84
